RYR9619 EVRA-LKPR
Flight info
| Callsign | RYR9619 |
|---|---|
| Flight time | 1h 37m |
| Altitude | 35000 |
| Route | BERIL DCT BOKSU/N0459F360 DCT DOSIX DCT AGALU DCT TOMTI DCT ASTEL DCT GOLOP |
| Aircraft | B738/M-SDE2E3FGHIRWXY/LB1 |
Departure
| Time | 2026-05-06 20:46 |
|---|---|
| Airport | Riga International Airport (EVRA) |
Arrival
| Time | 2026-05-06 22:23 |
|---|---|
| Airport | Václav Havel Airport Prague (LKPR) |
| Time | Latitude | Longitude | Altitude | Speed | Heading |
|---|---|---|---|---|---|
| 2026-05-06 20:19 | 56.92294 | 23.97676 | 43 ft | 0 kts | 185° |
| 2026-05-06 20:38 | 56.92305 | 23.97678 | 41 ft | 4 kts | 185° |
| 2026-05-06 20:38 | 56.92327 | 23.97682 | 42 ft | 3 kts | 186° |
| 2026-05-06 20:38 | 56.92346 | 23.97697 | 40 ft | 4 kts | 253° |
| 2026-05-06 20:39 | 56.92347 | 23.97736 | 39 ft | 1 kts | 275° |
| 2026-05-06 20:39 | 56.92347 | 23.97737 | 43 ft | 0 kts | 275° |
| 2026-05-06 20:42 | 56.92348 | 23.97720 | 43 ft | 5 kts | 275° |
| 2026-05-06 20:42 | 56.92353 | 23.97605 | 43 ft | 13 kts | 275° |
| 2026-05-06 20:42 | 56.92334 | 23.97503 | 43 ft | 9 kts | 205° |
| 2026-05-06 20:43 | 56.92268 | 23.97483 | 42 ft | 11 kts | 186° |
| 2026-05-06 20:43 | 56.92158 | 23.97465 | 43 ft | 20 kts | 185° |
| 2026-05-06 20:43 | 56.91988 | 23.97441 | 43 ft | 27 kts | 182° |
| 2026-05-06 20:43 | 56.91801 | 23.97417 | 41 ft | 26 kts | 185° |
| 2026-05-06 20:44 | 56.91627 | 23.97389 | 43 ft | 24 kts | 185° |
| 2026-05-06 20:44 | 56.91517 | 23.97371 | 43 ft | 23 kts | 185° |
| 2026-05-06 20:44 | 56.91382 | 23.97344 | 43 ft | 14 kts | 196° |
| 2026-05-06 20:44 | 56.91311 | 23.97240 | 43 ft | 13 kts | 229° |
| 2026-05-06 20:45 | 56.91263 | 23.97103 | 43 ft | 13 kts | 252° |
| 2026-05-06 20:45 | 56.91255 | 23.96965 | 44 ft | 5 kts | 287° |
| 2026-05-06 20:45 | 56.91286 | 23.96933 | 45 ft | 5 kts | 1° |
| 2026-05-06 20:45 | 56.91398 | 23.96955 | 45 ft | 43 kts | 5° |
| 2026-05-06 20:46 | 56.91940 | 23.97044 | 43 ft | 111 kts | 5° |
| 2026-05-06 20:46 | 56.92899 | 23.97204 | 98 ft | 159 kts | 6° |
| 2026-05-06 20:46 | 56.94024 | 23.97384 | 765 ft | 165 kts | 8° |
| 2026-05-06 20:46 | 56.95161 | 23.97566 | 1598 ft | 166 kts | 11° |
| 2026-05-06 20:47 | 56.96359 | 23.97585 | 2102 ft | 189 kts | 352° |
| 2026-05-06 20:47 | 56.97574 | 23.96188 | 2311 ft | 227 kts | 313° |
| 2026-05-06 20:47 | 56.98191 | 23.93363 | 2541 ft | 253 kts | 275° |
| 2026-05-06 20:47 | 56.97822 | 23.90210 | 2976 ft | 257 kts | 240° |
| 2026-05-06 20:48 | 56.96734 | 23.87628 | 2904 ft | 255 kts | 223° |
| 2026-05-06 20:48 | 56.95538 | 23.85239 | 2923 ft | 256 kts | 225° |
| 2026-05-06 20:48 | 56.94337 | 23.82772 | 3057 ft | 266 kts | 226° |
| 2026-05-06 20:48 | 56.93129 | 23.80099 | 3632 ft | 275 kts | 225° |
| 2026-05-06 20:49 | 56.91601 | 23.78148 | 4457 ft | 266 kts | 197° |
| 2026-05-06 20:49 | 56.89859 | 23.77071 | 5304 ft | 265 kts | 195° |
| 2026-05-06 20:49 | 56.88099 | 23.76093 | 6105 ft | 264 kts | 188° |
| 2026-05-06 20:49 | 56.86284 | 23.75829 | 6938 ft | 261 kts | 180° |
| 2026-05-06 20:50 | 56.84464 | 23.75842 | 7664 ft | 264 kts | 179° |
| 2026-05-06 20:50 | 56.82615 | 23.75944 | 8402 ft | 266 kts | 179° |
| 2026-05-06 20:50 | 56.80764 | 23.76105 | 9220 ft | 266 kts | 179° |
| 2026-05-06 20:50 | 56.78912 | 23.76322 | 10051 ft | 263 kts | 179° |
| 2026-05-06 20:51 | 56.77144 | 23.76579 | 11084 ft | 249 kts | 179° |
| 2026-05-06 20:51 | 56.75457 | 23.76857 | 12072 ft | 237 kts | 179° |
| 2026-05-06 20:51 | 56.73834 | 23.77153 | 12890 ft | 234 kts | 182° |
| 2026-05-06 20:51 | 56.72299 | 23.76565 | 13516 ft | 224 kts | 212° |
| 2026-05-06 20:52 | 56.70950 | 23.75117 | 14126 ft | 227 kts | 213° |
| 2026-05-06 20:52 | 56.69571 | 23.73665 | 14732 ft | 230 kts | 212° |
| 2026-05-06 20:52 | 56.68171 | 23.72235 | 15382 ft | 232 kts | 212° |
| 2026-05-06 20:52 | 56.66752 | 23.70822 | 16022 ft | 234 kts | 212° |
| 2026-05-06 20:53 | 56.65309 | 23.69415 | 16659 ft | 236 kts | 211° |
| 2026-05-06 20:53 | 56.63851 | 23.68015 | 17299 ft | 238 kts | 211° |
| 2026-05-06 20:53 | 56.62376 | 23.66615 | 17945 ft | 240 kts | 211° |
| 2026-05-06 20:53 | 56.60883 | 23.65209 | 18524 ft | 243 kts | 211° |
| 2026-05-06 20:54 | 56.59394 | 23.63818 | 19057 ft | 245 kts | 211° |
| 2026-05-06 20:54 | 56.57871 | 23.62400 | 19620 ft | 247 kts | 211° |
| 2026-05-06 20:54 | 56.56333 | 23.60973 | 20137 ft | 251 kts | 211° |
| 2026-05-06 20:54 | 56.54719 | 23.59476 | 20301 ft | 269 kts | 211° |
| 2026-05-06 20:55 | 56.52971 | 23.57857 | 20443 ft | 288 kts | 211° |
| 2026-05-06 20:55 | 56.51133 | 23.56161 | 20584 ft | 305 kts | 211° |
| 2026-05-06 20:55 | 56.49213 | 23.54396 | 20695 ft | 322 kts | 210° |
| 2026-05-06 20:55 | 56.47159 | 23.52512 | 20818 ft | 339 kts | 210° |
| 2026-05-06 20:56 | 56.45005 | 23.50541 | 20929 ft | 355 kts | 210° |
| 2026-05-06 20:56 | 56.42758 | 23.48486 | 21029 ft | 369 kts | 210° |
| 2026-05-06 20:56 | 56.40425 | 23.46355 | 21121 ft | 383 kts | 210° |
| 2026-05-06 20:56 | 56.37989 | 23.44213 | 21260 ft | 395 kts | 206° |
| 2026-05-06 20:57 | 56.35352 | 23.42632 | 21596 ft | 404 kts | 198° |
| 2026-05-06 20:57 | 56.32562 | 23.41756 | 22077 ft | 410 kts | 191° |
| 2026-05-06 20:57 | 56.29720 | 23.41246 | 22561 ft | 412 kts | 190° |
| 2026-05-06 20:57 | 56.26856 | 23.40745 | 22965 ft | 415 kts | 190° |
| 2026-05-06 20:58 | 56.23970 | 23.40237 | 23343 ft | 418 kts | 190° |
| 2026-05-06 20:58 | 56.21076 | 23.39721 | 23766 ft | 418 kts | 191° |
| 2026-05-06 20:58 | 56.18175 | 23.39196 | 24162 ft | 419 kts | 191° |
| 2026-05-06 20:58 | 56.15265 | 23.38662 | 24504 ft | 421 kts | 191° |
| 2026-05-06 20:59 | 56.12343 | 23.38122 | 24829 ft | 424 kts | 191° |
| 2026-05-06 20:59 | 56.09408 | 23.37578 | 25158 ft | 424 kts | 191° |
| 2026-05-06 20:59 | 56.06477 | 23.37037 | 25619 ft | 423 kts | 191° |
| 2026-05-06 20:59 | 56.03550 | 23.36496 | 25966 ft | 424 kts | 191° |
| 2026-05-06 21:00 | 56.00603 | 23.35949 | 26216 ft | 427 kts | 191° |
| 2026-05-06 21:00 | 55.97642 | 23.35400 | 26491 ft | 429 kts | 191° |
| 2026-05-06 21:00 | 55.94662 | 23.34850 | 26773 ft | 431 kts | 191° |
| 2026-05-06 21:00 | 55.91678 | 23.34301 | 27080 ft | 432 kts | 191° |
| 2026-05-06 21:01 | 55.88684 | 23.33751 | 27385 ft | 433 kts | 191° |
| 2026-05-06 21:01 | 55.85687 | 23.33202 | 27773 ft | 432 kts | 191° |
| 2026-05-06 21:01 | 55.82706 | 23.32659 | 28222 ft | 430 kts | 191° |
| 2026-05-06 21:01 | 55.79732 | 23.32117 | 28652 ft | 429 kts | 192° |
| 2026-05-06 21:02 | 55.76764 | 23.31576 | 29026 ft | 428 kts | 192° |
| 2026-05-06 21:02 | 55.73803 | 23.31037 | 29403 ft | 428 kts | 192° |
| 2026-05-06 21:02 | 55.70843 | 23.30498 | 29816 ft | 427 kts | 192° |
| 2026-05-06 21:02 | 55.67889 | 23.29961 | 30150 ft | 426 kts | 191° |
| 2026-05-06 21:03 | 55.64954 | 23.29429 | 30481 ft | 424 kts | 191° |
| 2026-05-06 21:03 | 55.62015 | 23.28896 | 30810 ft | 423 kts | 191° |
| 2026-05-06 21:03 | 55.59087 | 23.28366 | 31132 ft | 423 kts | 191° |
| 2026-05-06 21:03 | 55.56163 | 23.27838 | 31445 ft | 422 kts | 191° |
| 2026-05-06 21:04 | 55.53248 | 23.27312 | 31770 ft | 421 kts | 191° |
| 2026-05-06 21:04 | 55.50340 | 23.26788 | 32094 ft | 420 kts | 191° |
| 2026-05-06 21:04 | 55.47433 | 23.26265 | 32405 ft | 419 kts | 191° |
| 2026-05-06 21:04 | 55.44536 | 23.25745 | 32717 ft | 418 kts | 192° |
| 2026-05-06 21:05 | 55.41641 | 23.25226 | 33012 ft | 417 kts | 191° |
| 2026-05-06 21:05 | 55.38756 | 23.24708 | 33302 ft | 417 kts | 191° |
| 2026-05-06 21:05 | 55.35867 | 23.24191 | 33556 ft | 417 kts | 191° |
| 2026-05-06 21:05 | 55.32983 | 23.23676 | 33856 ft | 416 kts | 191° |
| 2026-05-06 21:06 | 55.30104 | 23.23163 | 34099 ft | 416 kts | 191° |
| 2026-05-06 21:06 | 55.27222 | 23.22649 | 34243 ft | 417 kts | 191° |
| 2026-05-06 21:06 | 55.24331 | 23.22134 | 34388 ft | 419 kts | 191° |
| 2026-05-06 21:06 | 55.21426 | 23.21617 | 34580 ft | 419 kts | 191° |
| 2026-05-06 21:07 | 55.18531 | 23.21104 | 34803 ft | 419 kts | 191° |
| 2026-05-06 21:07 | 55.15627 | 23.20591 | 34990 ft | 419 kts | 191° |
| 2026-05-06 21:07 | 55.12718 | 23.20076 | 35095 ft | 421 kts | 190° |
| 2026-05-06 21:07 | 55.09796 | 23.19559 | 35224 ft | 423 kts | 190° |
| 2026-05-06 21:08 | 55.06865 | 23.19043 | 35443 ft | 423 kts | 190° |
| 2026-05-06 21:08 | 55.03945 | 23.18531 | 35673 ft | 422 kts | 190° |
| 2026-05-06 21:08 | 55.01024 | 23.18018 | 35820 ft | 423 kts | 190° |
| 2026-05-06 21:09 | 54.95139 | 23.16985 | 35833 ft | 425 kts | 190° |
| 2026-05-06 21:09 | 54.89264 | 23.15960 | 35831 ft | 423 kts | 190° |
| 2026-05-06 21:10 | 54.83427 | 23.14944 | 35823 ft | 420 kts | 190° |
| 2026-05-06 21:10 | 54.77618 | 23.13935 | 35831 ft | 419 kts | 190° |
| 2026-05-06 21:11 | 54.71811 | 23.12928 | 35824 ft | 419 kts | 190° |
| 2026-05-06 21:11 | 54.66038 | 23.11929 | 35823 ft | 420 kts | 190° |
| 2026-05-06 21:12 | 54.60215 | 23.10925 | 35809 ft | 421 kts | 190° |
| 2026-05-06 21:12 | 54.54369 | 23.09921 | 35823 ft | 423 kts | 190° |
| 2026-05-06 21:13 | 54.48506 | 23.08916 | 35819 ft | 424 kts | 190° |
| 2026-05-06 21:13 | 54.42626 | 23.07912 | 35818 ft | 425 kts | 190° |
| 2026-05-06 21:14 | 54.36734 | 23.06908 | 35815 ft | 426 kts | 190° |
| 2026-05-06 21:14 | 54.31162 | 23.04187 | 35831 ft | 414 kts | 212° |
| 2026-05-06 21:14 | 54.28798 | 23.01401 | 35813 ft | 412 kts | 223° |
| 2026-05-06 21:15 | 54.26848 | 22.97845 | 35824 ft | 410 kts | 231° |
| 2026-05-06 21:15 | 54.23278 | 22.90215 | 35822 ft | 411 kts | 232° |
| 2026-05-06 21:16 | 54.19686 | 22.82586 | 35825 ft | 413 kts | 231° |
| 2026-05-06 21:16 | 54.16063 | 22.74973 | 35822 ft | 413 kts | 231° |
| 2026-05-06 21:17 | 54.12423 | 22.67378 | 35798 ft | 413 kts | 231° |
| 2026-05-06 21:17 | 54.08777 | 22.59802 | 35802 ft | 413 kts | 231° |
| 2026-05-06 21:18 | 54.05126 | 22.52238 | 35806 ft | 413 kts | 231° |
| 2026-05-06 21:18 | 54.01472 | 22.44693 | 35801 ft | 413 kts | 231° |
| 2026-05-06 21:19 | 53.97813 | 22.37158 | 35797 ft | 413 kts | 231° |
| 2026-05-06 21:19 | 53.94175 | 22.29690 | 35798 ft | 413 kts | 231° |
| 2026-05-06 21:20 | 53.90510 | 22.22190 | 35792 ft | 413 kts | 231° |
| 2026-05-06 21:20 | 53.86842 | 22.14705 | 35794 ft | 413 kts | 231° |
| 2026-05-06 21:21 | 53.83168 | 22.07232 | 35786 ft | 413 kts | 231° |
| 2026-05-06 21:21 | 53.79494 | 21.99779 | 35788 ft | 412 kts | 231° |
| 2026-05-06 21:22 | 53.75816 | 21.92343 | 35783 ft | 412 kts | 231° |
| 2026-05-06 21:22 | 53.72133 | 21.84917 | 35808 ft | 412 kts | 230° |
| 2026-05-06 21:23 | 53.68446 | 21.77506 | 35797 ft | 412 kts | 230° |
| 2026-05-06 21:23 | 53.64760 | 21.70118 | 35790 ft | 412 kts | 230° |
| 2026-05-06 21:24 | 53.61069 | 21.62744 | 35793 ft | 411 kts | 230° |
| 2026-05-06 21:24 | 53.57380 | 21.55394 | 35789 ft | 411 kts | 230° |
| 2026-05-06 21:25 | 53.53687 | 21.48060 | 35779 ft | 411 kts | 230° |
| 2026-05-06 21:25 | 53.49992 | 21.40743 | 35790 ft | 410 kts | 230° |
| 2026-05-06 21:26 | 53.46295 | 21.33442 | 35795 ft | 411 kts | 230° |
| 2026-05-06 21:26 | 53.42591 | 21.26149 | 35788 ft | 411 kts | 230° |
| 2026-05-06 21:27 | 53.38876 | 21.18859 | 35787 ft | 411 kts | 230° |
| 2026-05-06 21:27 | 53.35156 | 21.11577 | 35781 ft | 412 kts | 230° |
| 2026-05-06 21:28 | 53.31427 | 21.04300 | 35793 ft | 412 kts | 230° |
| 2026-05-06 21:28 | 53.27715 | 20.97078 | 35792 ft | 413 kts | 230° |
| 2026-05-06 21:29 | 53.23969 | 20.89809 | 35817 ft | 413 kts | 230° |
| 2026-05-06 21:29 | 53.20211 | 20.82541 | 35797 ft | 413 kts | 230° |
| 2026-05-06 21:30 | 53.16454 | 20.75293 | 35778 ft | 413 kts | 230° |
| 2026-05-06 21:30 | 53.12690 | 20.68056 | 35792 ft | 413 kts | 230° |
| 2026-05-06 21:31 | 53.09566 | 20.62063 | 35795 ft | 413 kts | 230° |
| 2026-05-06 21:31 | 53.05796 | 20.54852 | 35790 ft | 413 kts | 230° |
| 2026-05-06 21:32 | 53.02020 | 20.47649 | 35792 ft | 413 kts | 230° |
| 2026-05-06 21:32 | 52.96352 | 20.36878 | 35787 ft | 413 kts | 230° |
| 2026-05-06 21:33 | 52.92568 | 20.29712 | 35791 ft | 413 kts | 230° |
| 2026-05-06 21:33 | 52.88779 | 20.22558 | 35798 ft | 413 kts | 230° |
| 2026-05-06 21:34 | 52.84980 | 20.15405 | 35800 ft | 414 kts | 230° |
| 2026-05-06 21:34 | 52.81174 | 20.08260 | 35801 ft | 414 kts | 229° |
| 2026-05-06 21:35 | 52.77362 | 20.01125 | 35795 ft | 414 kts | 229° |
| 2026-05-06 21:35 | 52.73547 | 19.94003 | 35800 ft | 414 kts | 229° |
| 2026-05-06 21:36 | 52.69724 | 19.86888 | 35801 ft | 414 kts | 229° |
| 2026-05-06 21:36 | 52.65903 | 19.79796 | 35803 ft | 414 kts | 229° |
| 2026-05-06 21:37 | 52.62076 | 19.72714 | 35804 ft | 414 kts | 229° |
| 2026-05-06 21:37 | 52.58244 | 19.65643 | 35793 ft | 413 kts | 229° |
| 2026-05-06 21:38 | 52.54419 | 19.58604 | 35806 ft | 413 kts | 229° |
| 2026-05-06 21:38 | 52.50592 | 19.51580 | 35808 ft | 412 kts | 229° |
| 2026-05-06 21:39 | 52.46769 | 19.44584 | 35804 ft | 412 kts | 229° |
| 2026-05-06 21:39 | 52.42942 | 19.37600 | 35805 ft | 411 kts | 229° |
| 2026-05-06 21:40 | 52.39115 | 19.30632 | 35797 ft | 411 kts | 229° |
| 2026-05-06 21:40 | 52.35290 | 19.23690 | 35805 ft | 410 kts | 229° |
| 2026-05-06 21:41 | 52.31797 | 19.16422 | 35807 ft | 409 kts | 233° |
| 2026-05-06 21:41 | 52.28388 | 19.08965 | 35819 ft | 409 kts | 233° |
| 2026-05-06 21:42 | 52.24973 | 19.01527 | 35811 ft | 410 kts | 233° |
| 2026-05-06 21:42 | 52.21538 | 18.94102 | 35807 ft | 410 kts | 233° |
| 2026-05-06 21:43 | 52.18093 | 18.86691 | 35806 ft | 410 kts | 233° |
| 2026-05-06 21:43 | 52.14646 | 18.79301 | 35807 ft | 410 kts | 233° |
| 2026-05-06 21:44 | 52.11187 | 18.71907 | 35811 ft | 410 kts | 232° |
| 2026-05-06 21:44 | 52.07726 | 18.64530 | 35813 ft | 410 kts | 232° |
| 2026-05-06 21:45 | 52.04259 | 18.57160 | 35812 ft | 411 kts | 232° |
| 2026-05-06 21:45 | 52.00786 | 18.49799 | 35810 ft | 411 kts | 232° |
| 2026-05-06 21:46 | 51.97307 | 18.42447 | 35810 ft | 411 kts | 232° |
| 2026-05-06 21:46 | 51.93824 | 18.35106 | 35839 ft | 411 kts | 232° |
| 2026-05-06 21:47 | 51.90328 | 18.27759 | 35820 ft | 412 kts | 232° |
| 2026-05-06 21:47 | 51.86826 | 18.20421 | 35813 ft | 412 kts | 232° |
| 2026-05-06 21:48 | 51.83317 | 18.13089 | 35798 ft | 412 kts | 232° |
| 2026-05-06 21:48 | 51.79804 | 18.05770 | 35809 ft | 412 kts | 232° |
| 2026-05-06 21:49 | 51.76286 | 17.98460 | 35807 ft | 412 kts | 232° |
| 2026-05-06 21:49 | 51.72788 | 17.91213 | 35812 ft | 412 kts | 232° |
| 2026-05-06 21:50 | 51.69258 | 17.83920 | 35811 ft | 412 kts | 232° |
| 2026-05-06 21:50 | 51.65726 | 17.76645 | 35811 ft | 412 kts | 232° |
| 2026-05-06 21:51 | 51.62193 | 17.69386 | 35812 ft | 412 kts | 231° |
| 2026-05-06 21:51 | 51.58663 | 17.62154 | 35806 ft | 411 kts | 231° |
| 2026-05-06 21:52 | 51.55115 | 17.54906 | 35814 ft | 412 kts | 231° |
| 2026-05-06 21:52 | 51.51568 | 17.47676 | 35808 ft | 412 kts | 231° |
| 2026-05-06 21:53 | 51.48052 | 17.40406 | 35804 ft | 413 kts | 236° |
| 2026-05-06 21:53 | 51.45497 | 17.32156 | 35813 ft | 415 kts | 247° |
| 2026-05-06 21:54 | 51.43481 | 17.23490 | 35807 ft | 415 kts | 247° |
| 2026-05-06 21:54 | 51.41444 | 17.14825 | 35805 ft | 416 kts | 247° |
| 2026-05-06 21:55 | 51.39383 | 17.06166 | 35803 ft | 416 kts | 247° |
| 2026-05-06 21:55 | 51.37311 | 16.97526 | 35830 ft | 416 kts | 246° |
| 2026-05-06 21:56 | 51.35231 | 16.88892 | 35808 ft | 416 kts | 247° |
| 2026-05-06 21:56 | 51.33143 | 16.80256 | 35803 ft | 416 kts | 246° |
| 2026-05-06 21:57 | 51.31047 | 16.71623 | 35795 ft | 417 kts | 246° |
| 2026-05-06 21:57 | 51.28944 | 16.62995 | 35807 ft | 417 kts | 246° |
| 2026-05-06 21:58 | 51.26835 | 16.54374 | 35805 ft | 417 kts | 246° |
| 2026-05-06 21:58 | 51.24717 | 16.45754 | 35807 ft | 417 kts | 246° |
| 2026-05-06 21:59 | 51.22593 | 16.37141 | 35832 ft | 417 kts | 246° |
| 2026-05-06 21:59 | 51.20461 | 16.28526 | 35813 ft | 417 kts | 246° |
| 2026-05-06 22:00 | 51.18325 | 16.19931 | 35806 ft | 417 kts | 246° |
| 2026-05-06 22:00 | 51.16186 | 16.11356 | 35797 ft | 416 kts | 246° |
| 2026-05-06 22:01 | 51.14044 | 16.02802 | 35801 ft | 416 kts | 246° |
| 2026-05-06 22:01 | 51.11898 | 15.94266 | 35800 ft | 415 kts | 246° |
| 2026-05-06 22:02 | 51.09739 | 15.85715 | 35406 ft | 422 kts | 246° |
| 2026-05-06 22:02 | 51.08645 | 15.81392 | 34857 ft | 420 kts | 246° |
| 2026-05-06 22:02 | 51.07555 | 15.77091 | 34208 ft | 419 kts | 245° |
| 2026-05-06 22:03 | 51.06478 | 15.72851 | 33506 ft | 419 kts | 245° |
| 2026-05-06 22:03 | 51.05385 | 15.68557 | 32734 ft | 419 kts | 245° |
| 2026-05-06 22:03 | 51.04291 | 15.64265 | 32006 ft | 419 kts | 245° |
| 2026-05-06 22:03 | 51.03195 | 15.59977 | 31264 ft | 419 kts | 245° |
| 2026-05-06 22:04 | 51.02097 | 15.55688 | 30505 ft | 419 kts | 245° |
| 2026-05-06 22:04 | 51.00996 | 15.51395 | 29721 ft | 420 kts | 245° |
| 2026-05-06 22:04 | 50.99892 | 15.47097 | 28810 ft | 421 kts | 245° |
| 2026-05-06 22:04 | 50.98797 | 15.42838 | 28287 ft | 414 kts | 245° |
| 2026-05-06 22:05 | 50.97701 | 15.38585 | 27692 ft | 420 kts | 245° |
| 2026-05-06 22:05 | 50.96583 | 15.34261 | 27085 ft | 424 kts | 245° |
| 2026-05-06 22:05 | 50.95473 | 15.29964 | 26503 ft | 418 kts | 245° |
| 2026-05-06 22:05 | 50.94481 | 15.25649 | 25916 ft | 414 kts | 249° |
| 2026-05-06 22:06 | 50.93597 | 15.21329 | 25373 ft | 410 kts | 250° |
| 2026-05-06 22:06 | 50.92748 | 15.17035 | 24804 ft | 406 kts | 250° |
| 2026-05-06 22:06 | 50.91899 | 15.12791 | 24233 ft | 403 kts | 248° |
| 2026-05-06 22:06 | 50.90753 | 15.08804 | 23375 ft | 395 kts | 238° |
| 2026-05-06 22:07 | 50.89215 | 15.05197 | 22113 ft | 394 kts | 230° |
| 2026-05-06 22:07 | 50.87407 | 15.01957 | 21059 ft | 391 kts | 227° |
| 2026-05-06 22:07 | 50.85601 | 14.98790 | 20118 ft | 385 kts | 227° |
| 2026-05-06 22:07 | 50.83820 | 14.95665 | 19202 ft | 380 kts | 227° |
| 2026-05-06 22:08 | 50.82065 | 14.92575 | 18304 ft | 376 kts | 227° |
| 2026-05-06 22:08 | 50.80324 | 14.89500 | 17304 ft | 373 kts | 227° |
| 2026-05-06 22:08 | 50.78609 | 14.86470 | 16388 ft | 368 kts | 227° |
| 2026-05-06 22:08 | 50.76905 | 14.83456 | 15612 ft | 367 kts | 227° |
| 2026-05-06 22:09 | 50.75210 | 14.80459 | 15028 ft | 365 kts | 227° |
| 2026-05-06 22:09 | 50.73526 | 14.77484 | 14499 ft | 362 kts | 227° |
| 2026-05-06 22:09 | 50.71854 | 14.74533 | 13973 ft | 359 kts | 227° |
| 2026-05-06 22:09 | 50.70196 | 14.71610 | 13445 ft | 356 kts | 227° |
| 2026-05-06 22:10 | 50.68551 | 14.68712 | 12876 ft | 354 kts | 227° |
| 2026-05-06 22:10 | 50.66917 | 14.65837 | 12346 ft | 350 kts | 227° |
| 2026-05-06 22:10 | 50.65297 | 14.62991 | 11836 ft | 347 kts | 228° |
| 2026-05-06 22:10 | 50.63694 | 14.60176 | 11416 ft | 341 kts | 227° |
| 2026-05-06 22:11 | 50.62116 | 14.57409 | 11003 ft | 339 kts | 228° |
| 2026-05-06 22:11 | 50.60553 | 14.54672 | 10844 ft | 331 kts | 228° |
| 2026-05-06 22:11 | 50.59031 | 14.52010 | 10692 ft | 323 kts | 228° |
| 2026-05-06 22:11 | 50.57558 | 14.49435 | 10555 ft | 311 kts | 228° |
| 2026-05-06 22:12 | 50.56135 | 14.46950 | 10434 ft | 300 kts | 228° |
| 2026-05-06 22:12 | 50.54760 | 14.44551 | 10306 ft | 291 kts | 228° |
| 2026-05-06 22:12 | 50.53426 | 14.42226 | 10191 ft | 281 kts | 228° |
| 2026-05-06 22:12 | 50.52135 | 14.39978 | 10072 ft | 273 kts | 228° |
| 2026-05-06 22:13 | 50.50884 | 14.37802 | 9958 ft | 265 kts | 228° |
| 2026-05-06 22:13 | 50.49654 | 14.35664 | 9698 ft | 263 kts | 228° |
| 2026-05-06 22:13 | 50.48433 | 14.33542 | 9420 ft | 261 kts | 228° |
| 2026-05-06 22:13 | 50.47217 | 14.31432 | 9137 ft | 259 kts | 228° |
| 2026-05-06 22:14 | 50.46010 | 14.29339 | 8858 ft | 258 kts | 228° |
| 2026-05-06 22:14 | 50.44811 | 14.27261 | 8594 ft | 256 kts | 228° |
| 2026-05-06 22:14 | 50.43618 | 14.25196 | 8330 ft | 255 kts | 228° |
| 2026-05-06 22:14 | 50.42427 | 14.23135 | 8062 ft | 254 kts | 228° |
| 2026-05-06 22:15 | 50.41239 | 14.21082 | 7798 ft | 254 kts | 228° |
| 2026-05-06 22:15 | 50.40055 | 14.19036 | 7535 ft | 253 kts | 228° |
| 2026-05-06 22:15 | 50.38871 | 14.16992 | 7278 ft | 253 kts | 228° |
| 2026-05-06 22:15 | 50.37687 | 14.14950 | 7015 ft | 253 kts | 228° |
| 2026-05-06 22:16 | 50.36903 | 14.13599 | 6834 ft | 253 kts | 229° |
| 2026-05-06 22:16 | 50.35720 | 14.11558 | 6559 ft | 253 kts | 228° |
| 2026-05-06 22:16 | 50.34535 | 14.09519 | 6322 ft | 252 kts | 229° |
| 2026-05-06 22:16 | 50.33370 | 14.07519 | 6200 ft | 246 kts | 229° |
| 2026-05-06 22:17 | 50.32233 | 14.05566 | 6067 ft | 240 kts | 229° |
| 2026-05-06 22:17 | 50.31116 | 14.03669 | 5952 ft | 233 kts | 225° |
| 2026-05-06 22:17 | 50.29868 | 14.02076 | 5855 ft | 231 kts | 217° |
| 2026-05-06 22:17 | 50.28592 | 14.00637 | 5787 ft | 220 kts | 217° |
| 2026-05-06 22:18 | 50.27368 | 13.99251 | 5568 ft | 215 kts | 217° |
| 2026-05-06 22:18 | 50.26154 | 13.97910 | 5373 ft | 212 kts | 210° |
| 2026-05-06 22:18 | 50.24764 | 13.97551 | 5434 ft | 209 kts | 168° |
| 2026-05-06 22:18 | 50.23535 | 13.98742 | 5274 ft | 213 kts | 134° |
| 2026-05-06 22:19 | 50.22529 | 14.00475 | 4991 ft | 217 kts | 131° |
| 2026-05-06 22:19 | 50.21572 | 14.02277 | 4695 ft | 214 kts | 128° |
| 2026-05-06 22:19 | 50.20674 | 14.04099 | 4417 ft | 210 kts | 126° |
| 2026-05-06 22:19 | 50.19801 | 14.05903 | 4142 ft | 206 kts | 126° |
| 2026-05-06 22:20 | 50.18948 | 14.07667 | 3885 ft | 201 kts | 126° |
| 2026-05-06 22:20 | 50.18114 | 14.09393 | 3606 ft | 197 kts | 126° |
| 2026-05-06 22:20 | 50.17314 | 14.11045 | 3365 ft | 185 kts | 125° |
| 2026-05-06 22:20 | 50.16560 | 14.12606 | 3117 ft | 175 kts | 125° |
| 2026-05-06 22:21 | 50.15844 | 14.14089 | 2920 ft | 166 kts | 124° |
| 2026-05-06 22:21 | 50.15149 | 14.15528 | 2676 ft | 167 kts | 124° |
| 2026-05-06 22:21 | 50.14446 | 14.16981 | 2485 ft | 168 kts | 124° |
| 2026-05-06 22:21 | 50.13751 | 14.18398 | 2266 ft | 162 kts | 124° |
| 2026-05-06 22:22 | 50.13096 | 14.19784 | 2013 ft | 158 kts | 125° |
| 2026-05-06 22:22 | 50.12431 | 14.21169 | 1764 ft | 159 kts | 128° |
| 2026-05-06 22:22 | 50.11774 | 14.22528 | 1569 ft | 155 kts | 129° |
| 2026-05-06 22:22 | 50.11129 | 14.23869 | 1324 ft | 154 kts | 128° |
| 2026-05-06 22:23 | 50.10489 | 14.25190 | 1170 ft | 147 kts | 129° |
| 2026-05-06 22:23 | 50.09979 | 14.26235 | 1195 ft | 90 kts | 127° |
| 2026-05-06 22:23 | 50.09705 | 14.26802 | 1208 ft | 55 kts | 127° |
| 2026-05-06 22:23 | 50.09490 | 14.27247 | 1205 ft | 40 kts | 127° |
| 2026-05-06 22:24 | 50.09428 | 14.27422 | 1209 ft | 11 kts | 83° |
| 2026-05-06 22:24 | 50.09484 | 14.27502 | 1211 ft | 11 kts | 36° |
| 2026-05-06 22:24 | 50.09548 | 14.27577 | 1212 ft | 13 kts | 37° |
| 2026-05-06 22:24 | 50.09614 | 14.27639 | 1210 ft | 9 kts | 2° |
| 2026-05-06 22:25 | 50.09675 | 14.27584 | 1206 ft | 12 kts | 317° |
| 2026-05-06 22:25 | 50.09760 | 14.27455 | 1204 ft | 22 kts | 315° |
| 2026-05-06 22:25 | 50.09872 | 14.27275 | 1201 ft | 23 kts | 308° |
| 2026-05-06 22:25 | 50.09967 | 14.27078 | 1197 ft | 22 kts | 307° |
| 2026-05-06 22:26 | 50.10062 | 14.26881 | 1189 ft | 24 kts | 306° |
| 2026-05-06 22:26 | 50.10171 | 14.26657 | 1175 ft | 27 kts | 307° |
| 2026-05-06 22:26 | 50.10279 | 14.26432 | 1176 ft | 25 kts | 307° |
| 2026-05-06 22:26 | 50.10381 | 14.26222 | 1174 ft | 23 kts | 307° |
| 2026-05-06 22:27 | 50.10476 | 14.26024 | 1175 ft | 23 kts | 307° |
| 2026-05-06 22:27 | 50.10556 | 14.25851 | 1173 ft | 9 kts | 303° |
| 2026-05-06 22:27 | 50.10605 | 14.25800 | 1171 ft | 10 kts | 6° |
| 2026-05-06 22:27 | 50.10678 | 14.25868 | 1171 ft | 16 kts | 35° |
| 2026-05-06 22:28 | 50.10787 | 14.25986 | 1172 ft | 21 kts | 34° |
| 2026-05-06 22:28 | 50.10834 | 14.26037 | 1170 ft | 1 kts | 44° |
| 2026-05-06 22:28 | 50.10832 | 14.26073 | 1171 ft | 7 kts | 108° |
| 2026-05-06 22:28 | 50.10806 | 14.26135 | 1172 ft | 4 kts | 124° |
| 2026-05-06 22:29 | 50.10803 | 14.26142 | 1171 ft | 0 kts | 124° |